sensor_id;sensor_type;location;lat;lon;timestamp;P1;durP1;ratioP1;P2;durP2;ratioP2
75700;SDS011;64321;48.796;44.740;2024-03-25T00:00:28;7.68;;;2.22;;
75700;SDS011;64321;48.796;44.740;2024-03-25T00:05:30;6.55;;;2.45;;
75700;SDS011;64321;48.796;44.740;2024-03-25T00:10:33;6.72;;;2.85;;
75700;SDS011;64321;48.796;44.740;2024-03-25T00:15:34;8.15;;;2.42;;
75700;SDS011;64321;48.796;44.740;2024-03-25T00:20:38;5.13;;;1.85;;
75700;SDS011;64321;48.796;44.740;2024-03-25T00:25:40;7.63;;;2.08;;
75700;SDS011;64321;48.796;44.740;2024-03-25T00:35:43;7.70;;;2.28;;
75700;SDS011;64321;48.796;44.740;2024-03-25T00:40:46;7.40;;;2.33;;
75700;SDS011;64321;48.796;44.740;2024-03-25T00:45:48;6.57;;;2.38;;
75700;SDS011;64321;48.796;44.740;2024-03-25T00:50:49;4.70;;;1.88;;
75700;SDS011;64321;48.796;44.740;2024-03-25T00:55:50;5.07;;;1.83;;
75700;SDS011;64321;48.796;44.740;2024-03-25T01:00:52;4.20;;;1.48;;
75700;SDS011;64321;48.796;44.740;2024-03-25T01:05:54;4.20;;;1.50;;
75700;SDS011;64321;48.796;44.740;2024-03-25T01:10:55;5.00;;;1.73;;
75700;SDS011;64321;48.796;44.740;2024-03-25T01:15:56;5.13;;;2.03;;
75700;SDS011;64321;48.796;44.740;2024-03-25T01:20:58;6.85;;;2.63;;
75700;SDS011;64321;48.796;44.740;2024-03-25T01:26:00;6.35;;;2.38;;
75700;SDS011;64321;48.796;44.740;2024-03-25T01:31:01;5.70;;;2.40;;
75700;SDS011;64321;48.796;44.740;2024-03-25T01:36:03;7.07;;;2.70;;
75700;SDS011;64321;48.796;44.740;2024-03-25T01:46:12;7.88;;;2.90;;
75700;SDS011;64321;48.796;44.740;2024-03-25T01:56:17;6.68;;;2.50;;
75700;SDS011;64321;48.796;44.740;2024-03-25T02:01:20;10.65;;;3.00;;
75700;SDS011;64321;48.796;44.740;2024-03-25T02:06:24;8.55;;;3.17;;
75700;SDS011;64321;48.796;44.740;2024-03-25T02:11:28;9.85;;;4.60;;
75700;SDS011;64321;48.796;44.740;2024-03-25T02:16:31;8.48;;;3.50;;
75700;SDS011;64321;48.796;44.740;2024-03-25T02:21:32;10.85;;;3.95;;
75700;SDS011;64321;48.796;44.740;2024-03-25T02:26:33;7.28;;;3.17;;
75700;SDS011;64321;48.796;44.740;2024-03-25T02:31:35;9.38;;;2.75;;
75700;SDS011;64321;48.796;44.740;2024-03-25T02:36:36;8.27;;;2.80;;
75700;SDS011;64321;48.796;44.740;2024-03-25T02:46:39;7.63;;;1.88;;
75700;SDS011;64321;48.796;44.740;2024-03-25T02:51:42;7.65;;;2.28;;
75700;SDS011;64321;48.796;44.740;2024-03-25T02:56:43;5.07;;;1.80;;
75700;SDS011;64321;48.796;44.740;2024-03-25T03:06:46;6.78;;;2.03;;
75700;SDS011;64321;48.796;44.740;2024-03-25T03:11:47;7.78;;;1.83;;
75700;SDS011;64321;48.796;44.740;2024-03-25T03:16:49;7.63;;;2.33;;
75700;SDS011;64321;48.796;44.740;2024-03-25T03:21:50;12.80;;;3.70;;
75700;SDS011;64321;48.796;44.740;2024-03-25T03:26:51;9.38;;;3.30;;
75700;SDS011;64321;48.796;44.740;2024-03-25T03:31:53;10.63;;;3.92;;
75700;SDS011;64321;48.796;44.740;2024-03-25T03:36:54;15.98;;;5.65;;
75700;SDS011;64321;48.796;44.740;2024-03-25T03:41:55;10.95;;;3.92;;
75700;SDS011;64321;48.796;44.740;2024-03-25T03:46:57;16.27;;;5.30;;
75700;SDS011;64321;48.796;44.740;2024-03-25T03:51:58;10.73;;;4.78;;
75700;SDS011;64321;48.796;44.740;2024-03-25T03:56:59;19.75;;;7.60;;
75700;SDS011;64321;48.796;44.740;2024-03-25T04:02:01;19.95;;;8.20;;
75700;SDS011;64321;48.796;44.740;2024-03-25T04:07:02;18.08;;;8.30;;
75700;SDS011;64321;48.796;44.740;2024-03-25T04:12:03;21.45;;;8.95;;
75700;SDS011;64321;48.796;44.740;2024-03-25T04:17:06;22.42;;;8.43;;
75700;SDS011;64321;48.796;44.740;2024-03-25T04:22:08;23.05;;;8.38;;
75700;SDS011;64321;48.796;44.740;2024-03-25T04:27:09;17.88;;;7.15;;
75700;SDS011;64321;48.796;44.740;2024-03-25T04:32:11;20.30;;;8.90;;
75700;SDS011;64321;48.796;44.740;2024-03-25T04:37:12;18.92;;;8.38;;
75700;SDS011;64321;48.796;44.740;2024-03-25T04:42:13;16.27;;;6.22;;
75700;SDS011;64321;48.796;44.740;2024-03-25T04:47:15;10.85;;;3.58;;
75700;SDS011;64321;48.796;44.740;2024-03-25T04:52:16;5.38;;;1.60;;
75700;SDS011;64321;48.796;44.740;2024-03-25T04:57:17;4.50;;;1.65;;
75700;SDS011;64321;48.796;44.740;2024-03-25T05:02:19;5.30;;;2.13;;
75700;SDS011;64321;48.796;44.740;2024-03-25T05:07:21;6.78;;;1.90;;
75700;SDS011;64321;48.796;44.740;2024-03-25T05:12:22;8.35;;;1.90;;
75700;SDS011;64321;48.796;44.740;2024-03-25T05:22:25;7.93;;;3.58;;
75700;SDS011;64321;48.796;44.740;2024-03-25T05:27:26;7.90;;;2.85;;
75700;SDS011;64321;48.796;44.740;2024-03-25T05:32:27;9.32;;;3.45;;
75700;SDS011;64321;48.796;44.740;2024-03-25T05:37:29;9.18;;;3.95;;
75700;SDS011;64321;48.796;44.740;2024-03-25T05:42:33;13.93;;;3.88;;
75700;SDS011;64321;48.796;44.740;2024-03-25T05:47:35;12.23;;;4.53;;
75700;SDS011;64321;48.796;44.740;2024-03-25T05:52:36;13.48;;;4.38;;
75700;SDS011;64321;48.796;44.740;2024-03-25T06:02:39;10.98;;;3.72;;
75700;SDS011;64321;48.796;44.740;2024-03-25T06:07:40;11.82;;;3.92;;
75700;SDS011;64321;48.796;44.740;2024-03-25T06:12:41;12.20;;;3.30;;
75700;SDS011;64321;48.796;44.740;2024-03-25T06:22:44;12.15;;;4.15;;
75700;SDS011;64321;48.796;44.740;2024-03-25T06:27:45;5.20;;;2.38;;
75700;SDS011;64321;48.796;44.740;2024-03-25T06:32:48;6.78;;;2.38;;
75700;SDS011;64321;48.796;44.740;2024-03-25T06:38:08;7.70;;;2.20;;
75700;SDS011;64321;48.796;44.740;2024-03-25T06:43:09;8.35;;;2.83;;
75700;SDS011;64321;48.796;44.740;2024-03-25T06:48:10;8.65;;;2.28;;
75700;SDS011;64321;48.796;44.740;2024-03-25T06:53:12;7.97;;;2.97;;
75700;SDS011;64321;48.796;44.740;2024-03-25T06:58:14;6.75;;;3.05;;
75700;SDS011;64321;48.796;44.740;2024-03-25T07:03:20;6.85;;;2.63;;
75700;SDS011;64321;48.796;44.740;2024-03-25T07:08:22;6.43;;;2.70;;
75700;SDS011;64321;48.796;44.740;2024-03-25T07:13:23;7.28;;;2.22;;
75700;SDS011;64321;48.796;44.740;2024-03-25T07:18:26;8.48;;;2.85;;
75700;SDS011;64321;48.796;44.740;2024-03-25T07:23:27;9.77;;;2.80;;
75700;SDS011;64321;48.796;44.740;2024-03-25T07:28:29;11.40;;;3.63;;
75700;SDS011;64321;48.796;44.740;2024-03-25T07:33:30;8.35;;;3.28;;
75700;SDS011;64321;48.796;44.740;2024-03-25T07:38:32;9.15;;;3.20;;
75700;SDS011;64321;48.796;44.740;2024-03-25T07:48:34;9.20;;;3.53;;
75700;SDS011;64321;48.796;44.740;2024-03-25T07:53:36;7.07;;;2.85;;
75700;SDS011;64321;48.796;44.740;2024-03-25T07:58:38;9.65;;;3.30;;
75700;SDS011;64321;48.796;44.740;2024-03-25T08:03:39;9.80;;;3.40;;
75700;SDS011;64321;48.796;44.740;2024-03-25T08:08:40;9.80;;;3.42;;
75700;SDS011;64321;48.796;44.740;2024-03-25T08:13:42;9.93;;;2.85;;
75700;SDS011;64321;48.796;44.740;2024-03-25T08:18:43;10.82;;;3.33;;
75700;SDS011;64321;48.796;44.740;2024-03-25T08:23:45;10.30;;;3.10;;
75700;SDS011;64321;48.796;44.740;2024-03-25T08:28:46;12.77;;;2.70;;
75700;SDS011;64321;48.796;44.740;2024-03-25T08:33:49;11.35;;;2.88;;
75700;SDS011;64321;48.796;44.740;2024-03-25T08:38:51;10.85;;;2.85;;
75700;SDS011;64321;48.796;44.740;2024-03-25T08:43:52;6.13;;;2.30;;
75700;SDS011;64321;48.796;44.740;2024-03-25T08:48:54;7.38;;;2.13;;
75700;SDS011;64321;48.796;44.740;2024-03-25T08:53:55;6.00;;;2.50;;
75700;SDS011;64321;48.796;44.740;2024-03-25T08:58:56;5.05;;;1.52;;
75700;SDS011;64321;48.796;44.740;2024-03-25T09:03:58;5.88;;;1.98;;
75700;SDS011;64321;48.796;44.740;2024-03-25T09:09:00;8.15;;;1.33;;
75700;SDS011;64321;48.796;44.740;2024-03-25T09:14:19;5.32;;;1.55;;
75700;SDS011;64321;48.796;44.740;2024-03-25T09:19:21;5.63;;;1.85;;
75700;SDS011;64321;48.796;44.740;2024-03-25T09:24:22;6.22;;;1.73;;
75700;SDS011;64321;48.796;44.740;2024-03-25T09:29:24;7.43;;;1.40;;
75700;SDS011;64321;48.796;44.740;2024-03-25T09:34:26;3.63;;;1.30;;
75700;SDS011;64321;48.796;44.740;2024-03-25T09:39:27;5.25;;;1.63;;
75700;SDS011;64321;48.796;44.740;2024-03-25T09:44:28;4.55;;;1.60;;
75700;SDS011;64321;48.796;44.740;2024-03-25T09:49:32;4.55;;;1.40;;
75700;SDS011;64321;48.796;44.740;2024-03-25T09:54:35;14.93;;;6.72;;
75700;SDS011;64321;48.796;44.740;2024-03-25T09:59:36;11.50;;;4.78;;
75700;SDS011;64321;48.796;44.740;2024-03-25T10:04:39;9.82;;;4.78;;
75700;SDS011;64321;48.796;44.740;2024-03-25T10:09:46;8.20;;;4.07;;
75700;SDS011;64321;48.796;44.740;2024-03-25T10:14:47;10.45;;;4.30;;
75700;SDS011;64321;48.796;44.740;2024-03-25T10:19:48;19.80;;;7.43;;
75700;SDS011;64321;48.796;44.740;2024-03-25T10:24:50;17.58;;;5.38;;
75700;SDS011;64321;48.796;44.740;2024-03-25T10:29:52;16.63;;;6.45;;
75700;SDS011;64321;48.796;44.740;2024-03-25T10:34:56;15.55;;;5.70;;
75700;SDS011;64321;48.796;44.740;2024-03-25T10:40:00;19.00;;;8.07;;
75700;SDS011;64321;48.796;44.740;2024-03-25T10:45:04;19.13;;;7.05;;
75700;SDS011;64321;48.796;44.740;2024-03-25T10:50:09;10.70;;;4.70;;
75700;SDS011;64321;48.796;44.740;2024-03-25T10:55:14;10.18;;;3.53;;
75700;SDS011;64321;48.796;44.740;2024-03-25T11:00:19;10.27;;;4.72;;
75700;SDS011;64321;48.796;44.740;2024-03-25T11:05:20;15.85;;;5.40;;
75700;SDS011;64321;48.796;44.740;2024-03-25T11:10:29;18.73;;;7.68;;
75700;SDS011;64321;48.796;44.740;2024-03-25T11:15:35;10.52;;;4.43;;
75700;SDS011;64321;48.796;44.740;2024-03-25T11:20:39;10.70;;;4.32;;
75700;SDS011;64321;48.796;44.740;2024-03-25T11:25:41;18.77;;;7.20;;
75700;SDS011;64321;48.796;44.740;2024-03-25T11:30:42;13.40;;;4.43;;
75700;SDS011;64321;48.796;44.740;2024-03-25T11:35:46;11.60;;;5.07;;
75700;SDS011;64321;48.796;44.740;2024-03-25T11:40:47;22.45;;;5.30;;
75700;SDS011;64321;48.796;44.740;2024-03-25T11:45:49;10.27;;;4.10;;
75700;SDS011;64321;48.796;44.740;2024-03-25T11:50:50;12.48;;;4.53;;
75700;SDS011;64321;48.796;44.740;2024-03-25T11:55:52;17.00;;;4.43;;
75700;SDS011;64321;48.796;44.740;2024-03-25T12:00:54;17.10;;;5.05;;
75700;SDS011;64321;48.796;44.740;2024-03-25T12:05:57;15.77;;;4.97;;
75700;SDS011;64321;48.796;44.740;2024-03-25T12:10:59;11.68;;;4.70;;
75700;SDS011;64321;48.796;44.740;2024-03-25T12:16:19;13.23;;;4.22;;
75700;SDS011;64321;48.796;44.740;2024-03-25T12:21:20;5.93;;;2.22;;
75700;SDS011;64321;48.796;44.740;2024-03-25T12:26:22;4.80;;;1.80;;
75700;SDS011;64321;48.796;44.740;2024-03-25T12:31:23;7.05;;;1.50;;
75700;SDS011;64321;48.796;44.740;2024-03-25T12:36:25;4.88;;;2.13;;
75700;SDS011;64321;48.796;44.740;2024-03-25T12:41:29;9.80;;;1.77;;
75700;SDS011;64321;48.796;44.740;2024-03-25T12:46:30;8.18;;;1.98;;
75700;SDS011;64321;48.796;44.740;2024-03-25T12:51:31;10.13;;;1.60;;
75700;SDS011;64321;48.796;44.740;2024-03-25T12:56:33;7.65;;;1.88;;
75700;SDS011;64321;48.796;44.740;2024-03-25T13:01:34;10.82;;;2.92;;
75700;SDS011;64321;48.796;44.740;2024-03-25T13:06:35;7.10;;;1.67;;
75700;SDS011;64321;48.796;44.740;2024-03-25T13:11:37;6.43;;;2.40;;
75700;SDS011;64321;48.796;44.740;2024-03-25T13:16:39;8.40;;;1.92;;
75700;SDS011;64321;48.796;44.740;2024-03-25T13:21:41;10.30;;;1.90;;
75700;SDS011;64321;48.796;44.740;2024-03-25T13:26:43;4.63;;;1.55;;
75700;SDS011;64321;48.796;44.740;2024-03-25T13:31:44;5.50;;;1.95;;
75700;SDS011;64321;48.796;44.740;2024-03-25T13:36:45;7.18;;;1.63;;
75700;SDS011;64321;48.796;44.740;2024-03-25T13:41:47;6.85;;;2.58;;
75700;SDS011;64321;48.796;44.740;2024-03-25T13:46:49;10.27;;;2.03;;
75700;SDS011;64321;48.796;44.740;2024-03-25T13:51:55;7.80;;;2.60;;
75700;SDS011;64321;48.796;44.740;2024-03-25T13:56:59;8.05;;;2.33;;
75700;SDS011;64321;48.796;44.740;2024-03-25T14:02:01;7.30;;;1.73;;
75700;SDS011;64321;48.796;44.740;2024-03-25T14:07:02;9.43;;;2.92;;
75700;SDS011;64321;48.796;44.740;2024-03-25T14:12:03;7.18;;;1.30;;
75700;SDS011;64321;48.796;44.740;2024-03-25T14:17:05;4.88;;;1.60;;
75700;SDS011;64321;48.796;44.740;2024-03-25T14:22:06;8.27;;;1.52;;
75700;SDS011;64321;48.796;44.740;2024-03-25T14:27:08;4.97;;;1.73;;
75700;SDS011;64321;48.796;44.740;2024-03-25T14:32:10;8.88;;;2.35;;
75700;SDS011;64321;48.796;44.740;2024-03-25T14:37:11;8.02;;;2.13;;
75700;SDS011;64321;48.796;44.740;2024-03-25T14:42:13;8.35;;;2.78;;
75700;SDS011;64321;48.796;44.740;2024-03-25T14:47:14;8.80;;;2.78;;
75700;SDS011;64321;48.796;44.740;2024-03-25T14:52:15;10.45;;;2.60;;
75700;SDS011;64321;48.796;44.740;2024-03-25T14:57:17;17.35;;;2.88;;
75700;SDS011;64321;48.796;44.740;2024-03-25T15:02:19;7.63;;;2.20;;
75700;SDS011;64321;48.796;44.740;2024-03-25T15:07:20;8.73;;;1.90;;
75700;SDS011;64321;48.796;44.740;2024-03-25T15:12:22;8.23;;;2.05;;
75700;SDS011;64321;48.796;44.740;2024-03-25T15:17:24;8.65;;;2.22;;
75700;SDS011;64321;48.796;44.740;2024-03-25T15:22:26;9.82;;;2.20;;
75700;SDS011;64321;48.796;44.740;2024-03-25T15:27:27;4.60;;;1.45;;
75700;SDS011;64321;48.796;44.740;2024-03-25T15:32:29;8.73;;;1.30;;
75700;SDS011;64321;48.796;44.740;2024-03-25T15:37:30;6.00;;;1.60;;
75700;SDS011;64321;48.796;44.740;2024-03-25T15:42:33;5.10;;;1.13;;
75700;SDS011;64321;48.796;44.740;2024-03-25T15:47:34;5.88;;;1.30;;
75700;SDS011;64321;48.796;44.740;2024-03-25T15:52:36;5.68;;;1.50;;
75700;SDS011;64321;48.796;44.740;2024-03-25T15:57:38;6.00;;;1.75;;
75700;SDS011;64321;48.796;44.740;2024-03-25T16:02:40;5.45;;;2.13;;
75700;SDS011;64321;48.796;44.740;2024-03-25T16:07:41;5.65;;;1.65;;
75700;SDS011;64321;48.796;44.740;2024-03-25T16:12:42;6.28;;;1.92;;
75700;SDS011;64321;48.796;44.740;2024-03-25T16:17:45;6.68;;;1.63;;
75700;SDS011;64321;48.796;44.740;2024-03-25T16:22:46;6.45;;;1.80;;
75700;SDS011;64321;48.796;44.740;2024-03-25T16:27:48;9.88;;;2.30;;
75700;SDS011;64321;48.796;44.740;2024-03-25T16:32:49;5.68;;;1.88;;
75700;SDS011;64321;48.796;44.740;2024-03-25T16:37:51;11.13;;;1.63;;
75700;SDS011;64321;48.796;44.740;2024-03-25T16:42:54;6.95;;;2.08;;
75700;SDS011;64321;48.796;44.740;2024-03-25T16:47:55;4.60;;;1.70;;
75700;SDS011;64321;48.796;44.740;2024-03-25T16:52:57;4.78;;;1.90;;
75700;SDS011;64321;48.796;44.740;2024-03-25T16:57:58;7.07;;;2.03;;
75700;SDS011;64321;48.796;44.740;2024-03-25T17:02:59;5.45;;;1.70;;
75700;SDS011;64321;48.796;44.740;2024-03-25T17:08:01;6.28;;;2.03;;
75700;SDS011;64321;48.796;44.740;2024-03-25T17:13:03;5.30;;;1.48;;
75700;SDS011;64321;48.796;44.740;2024-03-25T17:18:08;13.35;;;1.80;;
75700;SDS011;64321;48.796;44.740;2024-03-25T17:23:11;11.93;;;2.30;;
75700;SDS011;64321;48.796;44.740;2024-03-25T17:28:12;6.72;;;2.15;;
75700;SDS011;64321;48.796;44.740;2024-03-25T17:33:14;7.85;;;1.98;;
75700;SDS011;64321;48.796;44.740;2024-03-25T17:38:16;13.27;;;2.65;;
75700;SDS011;64321;48.796;44.740;2024-03-25T17:48:20;21.85;;;2.90;;
75700;SDS011;64321;48.796;44.740;2024-03-25T17:53:22;10.45;;;2.65;;
75700;SDS011;64321;48.796;44.740;2024-03-25T17:58:23;13.82;;;2.78;;
75700;SDS011;64321;48.796;44.740;2024-03-25T18:03:25;9.10;;;3.33;;
75700;SDS011;64321;48.796;44.740;2024-03-25T18:08:26;16.13;;;3.03;;
75700;SDS011;64321;48.796;44.740;2024-03-25T18:18:28;7.35;;;3.30;;
75700;SDS011;64321;48.796;44.740;2024-03-25T18:28:31;11.52;;;3.63;;
75700;SDS011;64321;48.796;44.740;2024-03-25T18:33:32;13.13;;;3.60;;
75700;SDS011;64321;48.796;44.740;2024-03-25T18:38:34;12.80;;;4.00;;
75700;SDS011;64321;48.796;44.740;2024-03-25T18:43:36;16.30;;;4.47;;
75700;SDS011;64321;48.796;44.740;2024-03-25T18:48:37;17.55;;;5.95;;
75700;SDS011;64321;48.796;44.740;2024-03-25T18:53:39;20.27;;;5.55;;
75700;SDS011;64321;48.796;44.740;2024-03-25T18:58:40;25.30;;;6.57;;
75700;SDS011;64321;48.796;44.740;2024-03-25T19:08:43;24.77;;;4.63;;
75700;SDS011;64321;48.796;44.740;2024-03-25T19:13:44;15.35;;;4.20;;
75700;SDS011;64321;48.796;44.740;2024-03-25T19:23:46;17.80;;;3.95;;
75700;SDS011;64321;48.796;44.740;2024-03-25T19:33:49;15.68;;;3.83;;
75700;SDS011;64321;48.796;44.740;2024-03-25T19:38:50;10.63;;;3.53;;
75700;SDS011;64321;48.796;44.740;2024-03-25T19:43:52;12.43;;;4.28;;
75700;SDS011;64321;48.796;44.740;2024-03-25T19:48:53;15.65;;;4.95;;
75700;SDS011;64321;48.796;44.740;2024-03-25T19:58:56;10.43;;;4.57;;
75700;SDS011;64321;48.796;44.740;2024-03-25T20:09:00;15.38;;;5.45;;
75700;SDS011;64321;48.796;44.740;2024-03-25T20:14:01;14.27;;;6.53;;
75700;SDS011;64321;48.796;44.740;2024-03-25T20:19:03;25.23;;;7.97;;
75700;SDS011;64321;48.796;44.740;2024-03-25T20:24:04;24.92;;;8.23;;
75700;SDS011;64321;48.796;44.740;2024-03-25T20:29:06;27.83;;;8.48;;
75700;SDS011;64321;48.796;44.740;2024-03-25T20:39:09;23.35;;;7.75;;
75700;SDS011;64321;48.796;44.740;2024-03-25T20:49:11;23.35;;;8.07;;
75700;SDS011;64321;48.796;44.740;2024-03-25T20:59:14;25.88;;;9.77;;
75700;SDS011;64321;48.796;44.740;2024-03-25T21:09:17;23.42;;;9.30;;
75700;SDS011;64321;48.796;44.740;2024-03-25T21:14:18;23.50;;;9.13;;
75700;SDS011;64321;48.796;44.740;2024-03-25T21:19:19;35.30;;;11.75;;
75700;SDS011;64321;48.796;44.740;2024-03-25T21:24:21;48.58;;;14.00;;
75700;SDS011;64321;48.796;44.740;2024-03-25T21:34:23;49.65;;;18.10;;
75700;SDS011;64321;48.796;44.740;2024-03-25T21:39:24;45.83;;;16.98;;
75700;SDS011;64321;48.796;44.740;2024-03-25T21:44:26;43.00;;;16.83;;
75700;SDS011;64321;48.796;44.740;2024-03-25T21:54:28;23.77;;;10.02;;
75700;SDS011;64321;48.796;44.740;2024-03-25T21:59:30;24.98;;;10.57;;
75700;SDS011;64321;48.796;44.740;2024-03-25T22:09:32;26.33;;;11.10;;
75700;SDS011;64321;48.796;44.740;2024-03-25T22:14:33;26.52;;;11.57;;
75700;SDS011;64321;48.796;44.740;2024-03-25T22:19:35;27.45;;;11.80;;
75700;SDS011;64321;48.796;44.740;2024-03-25T22:24:37;25.83;;;11.55;;
75700;SDS011;64321;48.796;44.740;2024-03-25T22:29:38;23.90;;;11.20;;
75700;SDS011;64321;48.796;44.740;2024-03-25T22:34:40;25.17;;;11.70;;
75700;SDS011;64321;48.796;44.740;2024-03-25T22:39:41;26.63;;;11.05;;
75700;SDS011;64321;48.796;44.740;2024-03-25T22:44:46;19.75;;;10.00;;
75700;SDS011;64321;48.796;44.740;2024-03-25T22:49:47;19.88;;;8.68;;
75700;SDS011;64321;48.796;44.740;2024-03-25T22:54:52;16.40;;;8.13;;
75700;SDS011;64321;48.796;44.740;2024-03-25T22:59:54;15.93;;;7.10;;
75700;SDS011;64321;48.796;44.740;2024-03-25T23:04:55;13.25;;;6.75;;
75700;SDS011;64321;48.796;44.740;2024-03-25T23:09:57;14.48;;;7.40;;
75700;SDS011;64321;48.796;44.740;2024-03-25T23:14:58;14.77;;;6.55;;
75700;SDS011;64321;48.796;44.740;2024-03-25T23:19:59;14.02;;;6.32;;
75700;SDS011;64321;48.796;44.740;2024-03-25T23:25:01;13.02;;;6.57;;
75700;SDS011;64321;48.796;44.740;2024-03-25T23:30:03;13.98;;;6.50;;
75700;SDS011;64321;48.796;44.740;2024-03-25T23:35:06;14.43;;;6.97;;
75700;SDS011;64321;48.796;44.740;2024-03-25T23:40:07;15.82;;;5.95;;
75700;SDS011;64321;48.796;44.740;2024-03-25T23:45:10;13.50;;;6.32;;
75700;SDS011;64321;48.796;44.740;2024-03-25T23:50:11;13.20;;;6.47;;
